sensor_id;sensor_type;location;lat;lon;timestamp;pressure;altitude;pressure_sealevel;temperature;humidity
50166;BME280;36071;48.140;11.516;2023-02-23T00:03:29;95150.0;;;9.6;60.6
50166;BME280;36071;48.140;11.516;2023-02-23T00:08:29;95140.0;;;9.4;61.7
50166;BME280;36071;48.140;11.516;2023-02-23T00:13:29;95140.0;;;9.4;61.8
50166;BME280;36071;48.140;11.516;2023-02-23T00:18:29;95140.0;;;9.3;62.0
50166;BME280;36071;48.140;11.516;2023-02-23T00:23:29;95150.0;;;9.3;62.8
50166;BME280;36071;48.140;11.516;2023-02-23T00:28:29;95140.0;;;9.3;63.1
50166;BME280;36071;48.140;11.516;2023-02-23T00:33:29;95140.0;;;9.4;62.9
50166;BME280;36071;48.140;11.516;2023-02-23T00:38:29;95150.0;;;9.4;62.3
50166;BME280;36071;48.140;11.516;2023-02-23T00:43:31;95160.0;;;9.3;63.2
50166;BME280;36071;48.140;11.516;2023-02-23T00:48:29;95150.0;;;9.4;63.2
50166;BME280;36071;48.140;11.516;2023-02-23T00:53:29;95150.0;;;9.4;63.3
50166;BME280;36071;48.140;11.516;2023-02-23T00:58:29;95150.0;;;9.4;63.5
50166;BME280;36071;48.140;11.516;2023-02-23T01:03:29;95160.0;;;9.3;64.3
50166;BME280;36071;48.140;11.516;2023-02-23T01:08:29;95160.0;;;9.2;64.7
50166;BME280;36071;48.140;11.516;2023-02-23T01:13:29;95150.0;;;9.3;64.0
50166;BME280;36071;48.140;11.516;2023-02-23T01:18:29;95150.0;;;9.4;63.9
50166;BME280;36071;48.140;11.516;2023-02-23T01:23:29;95150.0;;;9.3;64.1
50166;BME280;36071;48.140;11.516;2023-02-23T01:28:29;95150.0;;;9.2;64.5
50166;BME280;36071;48.140;11.516;2023-02-23T01:33:29;95150.0;;;9.2;65.3
50166;BME280;36071;48.140;11.516;2023-02-23T01:38:29;95150.0;;;9.1;65.0
50166;BME280;36071;48.140;11.516;2023-02-23T01:43:29;95160.0;;;9.1;65.7
50166;BME280;36071;48.140;11.516;2023-02-23T01:48:29;95160.0;;;9.1;65.4
50166;BME280;36071;48.140;11.516;2023-02-23T01:53:30;95150.0;;;9.1;65.4
50166;BME280;36071;48.140;11.516;2023-02-23T01:58:29;95150.0;;;9.1;65.9
50166;BME280;36071;48.140;11.516;2023-02-23T02:03:30;95140.0;;;9.0;66.1
50166;BME280;36071;48.140;11.516;2023-02-23T02:08:29;95140.0;;;9.0;66.2
50166;BME280;36071;48.140;11.516;2023-02-23T02:13:29;95120.0;;;9.1;65.5
50166;BME280;36071;48.140;11.516;2023-02-23T02:18:31;95120.0;;;9.1;65.3
50166;BME280;36071;48.140;11.516;2023-02-23T02:23:34;95120.0;;;8.8;67.0
50166;BME280;36071;48.140;11.516;2023-02-23T02:28:43;95120.0;;;9.0;66.3
50166;BME280;36071;48.140;11.516;2023-02-23T02:33:35;95120.0;;;9.0;66.2
50166;BME280;36071;48.140;11.516;2023-02-23T02:38:32;95120.0;;;8.8;67.1
50166;BME280;36071;48.140;11.516;2023-02-23T02:43:32;95120.0;;;8.9;67.0
50166;BME280;36071;48.140;11.516;2023-02-23T02:48:32;95120.0;;;8.9;66.5
50166;BME280;36071;48.140;11.516;2023-02-23T02:53:32;95120.0;;;8.9;66.4
50166;BME280;36071;48.140;11.516;2023-02-23T02:58:29;95120.0;;;8.9;66.6
50166;BME280;36071;48.140;11.516;2023-02-23T03:03:30;95120.0;;;8.7;67.4
50166;BME280;36071;48.140;11.516;2023-02-23T03:08:31;95120.0;;;8.8;67.3
50166;BME280;36071;48.140;11.516;2023-02-23T03:13:31;95120.0;;;8.8;67.0
50166;BME280;36071;48.140;11.516;2023-02-23T03:18:33;95120.0;;;8.8;67.2
50166;BME280;36071;48.140;11.516;2023-02-23T03:23:32;95130.0;;;8.8;67.4
50166;BME280;36071;48.140;11.516;2023-02-23T03:28:29;95120.0;;;8.9;67.0
50166;BME280;36071;48.140;11.516;2023-02-23T03:33:31;95110.0;;;8.9;66.8
50166;BME280;36071;48.140;11.516;2023-02-23T03:38:31;95120.0;;;8.9;66.7
50166;BME280;36071;48.140;11.516;2023-02-23T03:43:31;95120.0;;;8.9;67.5
50166;BME280;36071;48.140;11.516;2023-02-23T03:48:29;95130.0;;;8.8;67.2
50166;BME280;36071;48.140;11.516;2023-02-23T03:53:30;95130.0;;;8.9;66.9
50166;BME280;36071;48.140;11.516;2023-02-23T03:58:29;95130.0;;;8.7;68.4
50166;BME280;36071;48.140;11.516;2023-02-23T04:03:29;95140.0;;;8.8;67.4
50166;BME280;36071;48.140;11.516;2023-02-23T04:08:29;95140.0;;;8.7;68.1
50166;BME280;36071;48.140;11.516;2023-02-23T04:13:29;95130.0;;;8.6;68.4
50166;BME280;36071;48.140;11.516;2023-02-23T04:18:30;95130.0;;;8.6;68.5
50166;BME280;36071;48.140;11.516;2023-02-23T04:23:29;95140.0;;;8.5;68.7
50166;BME280;36071;48.140;11.516;2023-02-23T04:28:29;95140.0;;;8.6;68.1
50166;BME280;36071;48.140;11.516;2023-02-23T04:33:29;95130.0;;;8.6;68.0
50166;BME280;36071;48.140;11.516;2023-02-23T04:38:29;95130.0;;;8.5;68.6
50166;BME280;36071;48.140;11.516;2023-02-23T04:43:29;95140.0;;;8.6;68.0
50166;BME280;36071;48.140;11.516;2023-02-23T04:48:29;95140.0;;;8.6;67.8
50166;BME280;36071;48.140;11.516;2023-02-23T04:53:29;95140.0;;;8.4;68.6
50166;BME280;36071;48.140;11.516;2023-02-23T04:58:29;95150.0;;;8.4;68.5
50166;BME280;36071;48.140;11.516;2023-02-23T05:03:29;95150.0;;;8.3;69.5
50166;BME280;36071;48.140;11.516;2023-02-23T05:08:29;95150.0;;;8.2;69.6
50166;BME280;36071;48.140;11.516;2023-02-23T05:13:29;95150.0;;;8.2;69.9
50166;BME280;36071;48.140;11.516;2023-02-23T05:18:29;95150.0;;;8.2;69.8
50166;BME280;36071;48.140;11.516;2023-02-23T05:23:29;95150.0;;;8.0;70.4
50166;BME280;36071;48.140;11.516;2023-02-23T05:28:29;95150.0;;;8.1;69.8
50166;BME280;36071;48.140;11.516;2023-02-23T05:33:29;95150.0;;;8.2;69.8
50166;BME280;36071;48.140;11.516;2023-02-23T05:38:29;95150.0;;;8.2;69.5
50166;BME280;36071;48.140;11.516;2023-02-23T05:43:29;95160.0;;;8.1;70.3
50166;BME280;36071;48.140;11.516;2023-02-23T05:48:29;95160.0;;;8.2;69.4
50166;BME280;36071;48.140;11.516;2023-02-23T05:53:29;95150.0;;;8.1;70.4
50166;BME280;36071;48.140;11.516;2023-02-23T05:58:29;95160.0;;;8.2;70.1
50166;BME280;36071;48.140;11.516;2023-02-23T06:03:29;95120.0;;;7.8;70.2
50166;BME280;36071;48.140;11.516;2023-02-23T06:08:29;95160.0;;;8.1;70.2
50166;BME280;36071;48.140;11.516;2023-02-23T06:13:29;95170.0;;;8.2;69.9
50166;BME280;36071;48.140;11.516;2023-02-23T06:18:29;95160.0;;;8.2;69.9
50166;BME280;36071;48.140;11.516;2023-02-23T06:23:29;95170.0;;;8.2;70.2
50166;BME280;36071;48.140;11.516;2023-02-23T06:28:29;95170.0;;;8.2;70.6
50166;BME280;36071;48.140;11.516;2023-02-23T06:33:29;95180.0;;;8.1;71.0
50166;BME280;36071;48.140;11.516;2023-02-23T06:38:29;95180.0;;;8.2;70.7
50166;BME280;36071;48.140;11.516;2023-02-23T06:43:29;95190.0;;;8.3;70.6
50166;BME280;36071;48.140;11.516;2023-02-23T06:48:29;95200.0;;;8.4;70.6
50166;BME280;36071;48.140;11.516;2023-02-23T06:53:29;95210.0;;;8.4;70.9
50166;BME280;36071;48.140;11.516;2023-02-23T06:58:29;95200.0;;;8.3;71.2
50166;BME280;36071;48.140;11.516;2023-02-23T07:03:29;95200.0;;;8.3;71.3
50166;BME280;36071;48.140;11.516;2023-02-23T07:08:29;95210.0;;;8.3;71.3
50166;BME280;36071;48.140;11.516;2023-02-23T07:13:29;95210.0;;;8.3;71.4
50166;BME280;36071;48.140;11.516;2023-02-23T07:18:29;95210.0;;;8.4;71.4
50166;BME280;36071;48.140;11.516;2023-02-23T07:23:29;95200.0;;;8.4;71.3
50166;BME280;36071;48.140;11.516;2023-02-23T07:28:29;95210.0;;;8.5;71.0
50166;BME280;36071;48.140;11.516;2023-02-23T07:33:30;95210.0;;;8.4;72.1
50166;BME280;36071;48.140;11.516;2023-02-23T07:43:29;95210.0;;;8.6;72.1
50166;BME280;36071;48.140;11.516;2023-02-23T07:48:29;95210.0;;;8.7;71.7
50166;BME280;36071;48.140;11.516;2023-02-23T07:53:29;95220.0;;;8.8;71.7
50166;BME280;36071;48.140;11.516;2023-02-23T07:58:29;95220.0;;;8.9;71.8
50166;BME280;36071;48.140;11.516;2023-02-23T08:03:29;95220.0;;;9.0;72.1
50166;BME280;36071;48.140;11.516;2023-02-23T08:08:29;95220.0;;;9.0;72.5
50166;BME280;36071;48.140;11.516;2023-02-23T08:13:29;95150.0;;;8.5;74.0
50166;BME280;36071;48.140;11.516;2023-02-23T08:18:29;95220.0;;;9.0;74.0
50166;BME280;36071;48.140;11.516;2023-02-23T08:23:29;95160.0;;;8.7;73.9
50166;BME280;36071;48.140;11.516;2023-02-23T08:28:29;95220.0;;;9.1;74.2
50166;BME280;36071;48.140;11.516;2023-02-23T08:33:29;95220.0;;;9.2;74.4
50166;BME280;36071;48.140;11.516;2023-02-23T08:38:32;95220.0;;;9.3;73.8
50166;BME280;36071;48.140;11.516;2023-02-23T08:43:29;95220.0;;;9.3;73.9
50166;BME280;36071;48.140;11.516;2023-02-23T08:48:29;95220.0;;;9.4;74.2
50166;BME280;36071;48.140;11.516;2023-02-23T08:53:29;95220.0;;;9.5;74.5
50166;BME280;36071;48.140;11.516;2023-02-23T08:58:29;95220.0;;;9.9;74.6
50166;BME280;36071;48.140;11.516;2023-02-23T09:03:29;95220.0;;;9.9;71.8
50166;BME280;36071;48.140;11.516;2023-02-23T09:08:29;95210.0;;;10.0;72.2
50166;BME280;36071;48.140;11.516;2023-02-23T09:13:29;95220.0;;;10.0;72.8
50166;BME280;36071;48.140;11.516;2023-02-23T09:18:29;95220.0;;;10.1;73.4
50166;BME280;36071;48.140;11.516;2023-02-23T09:23:29;95220.0;;;10.1;72.4
50166;BME280;36071;48.140;11.516;2023-02-23T09:28:29;95160.0;;;9.9;70.7
50166;BME280;36071;48.140;11.516;2023-02-23T09:33:29;95230.0;;;10.4;70.5
50166;BME280;36071;48.140;11.516;2023-02-23T09:38:29;95220.0;;;10.1;72.2
50166;BME280;36071;48.140;11.516;2023-02-23T09:43:29;95230.0;;;10.2;71.6
50166;BME280;36071;48.140;11.516;2023-02-23T09:48:29;95230.0;;;10.4;74.0
50166;BME280;36071;48.140;11.516;2023-02-23T09:53:31;95240.0;;;10.4;70.9
50166;BME280;36071;48.140;11.516;2023-02-23T09:58:29;95230.0;;;10.5;70.8
50166;BME280;36071;48.140;11.516;2023-02-23T10:03:35;95180.0;;;10.1;70.9
50166;BME280;36071;48.140;11.516;2023-02-23T10:08:34;95230.0;;;10.5;71.2
50166;BME280;36071;48.140;11.516;2023-02-23T10:13:31;95230.0;;;10.6;70.6
50166;BME280;36071;48.140;11.516;2023-02-23T10:18:31;95230.0;;;10.7;70.3
50166;BME280;36071;48.140;11.516;2023-02-23T10:23:30;95190.0;;;10.4;70.0
50166;BME280;36071;48.140;11.516;2023-02-23T10:28:32;95230.0;;;10.6;69.3
50166;BME280;36071;48.140;11.516;2023-02-23T10:33:30;95230.0;;;10.6;69.8
50166;BME280;36071;48.140;11.516;2023-02-23T10:38:29;95230.0;;;10.6;69.3
50166;BME280;36071;48.140;11.516;2023-02-23T10:43:29;95230.0;;;10.6;69.4
50166;BME280;36071;48.140;11.516;2023-02-23T10:48:30;95220.0;;;10.7;69.1
50166;BME280;36071;48.140;11.516;2023-02-23T10:53:30;95230.0;;;10.9;68.2
50166;BME280;36071;48.140;11.516;2023-02-23T10:58:29;95230.0;;;10.9;67.9
50166;BME280;36071;48.140;11.516;2023-02-23T11:03:31;95230.0;;;11.0;67.6
50166;BME280;36071;48.140;11.516;2023-02-23T11:08:30;95220.0;;;11.1;67.1
50166;BME280;36071;48.140;11.516;2023-02-23T11:13:33;95230.0;;;11.3;66.6
50166;BME280;36071;48.140;11.516;2023-02-23T11:18:29;95220.0;;;11.5;65.9
50166;BME280;36071;48.140;11.516;2023-02-23T11:23:30;95220.0;;;11.3;66.1
50166;BME280;36071;48.140;11.516;2023-02-23T11:28:30;95210.0;;;11.4;65.7
50166;BME280;36071;48.140;11.516;2023-02-23T11:38:29;95200.0;;;11.8;64.1
50166;BME280;36071;48.140;11.516;2023-02-23T11:43:29;95200.0;;;12.3;62.5
50166;BME280;36071;48.140;11.516;2023-02-23T11:48:30;95200.0;;;12.0;63.4
50166;BME280;36071;48.140;11.516;2023-02-23T11:53:30;95190.0;;;11.9;63.8
50166;BME280;36071;48.140;11.516;2023-02-23T11:58:31;95180.0;;;11.9;63.3
50166;BME280;36071;48.140;11.516;2023-02-23T12:03:29;95180.0;;;11.8;64.3
50166;BME280;36071;48.140;11.516;2023-02-23T12:08:33;95170.0;;;11.9;64.3
50166;BME280;36071;48.140;11.516;2023-02-23T12:13:30;95160.0;;;12.3;62.0
50166;BME280;36071;48.140;11.516;2023-02-23T12:18:34;95160.0;;;12.3;62.1
50166;BME280;36071;48.140;11.516;2023-02-23T12:23:29;95160.0;;;12.4;60.7
50166;BME280;36071;48.140;11.516;2023-02-23T12:28:30;95160.0;;;12.4;60.8
50166;BME280;36071;48.140;11.516;2023-02-23T12:33:31;95160.0;;;12.2;61.5
50166;BME280;36071;48.140;11.516;2023-02-23T12:38:32;95140.0;;;12.1;61.7
50166;BME280;36071;48.140;11.516;2023-02-23T12:43:32;95150.0;;;12.3;61.7
50166;BME280;36071;48.140;11.516;2023-02-23T12:48:30;95140.0;;;12.3;61.3
50166;BME280;36071;48.140;11.516;2023-02-23T12:53:31;95140.0;;;12.3;61.4
50166;BME280;36071;48.140;11.516;2023-02-23T12:58:32;95140.0;;;12.2;62.1
50166;BME280;36071;48.140;11.516;2023-02-23T13:03:48;95140.0;;;12.2;62.5
50166;BME280;36071;48.140;11.516;2023-02-23T13:08:33;95130.0;;;12.2;61.7
50166;BME280;36071;48.140;11.516;2023-02-23T13:13:30;95130.0;;;12.1;62.2
50166;BME280;36071;48.140;11.516;2023-02-23T13:18:31;95130.0;;;12.0;62.7
50166;BME280;36071;48.140;11.516;2023-02-23T13:23:31;95130.0;;;12.2;62.4
50166;BME280;36071;48.140;11.516;2023-02-23T13:28:33;95130.0;;;12.4;62.1
50166;BME280;36071;48.140;11.516;2023-02-23T13:33:29;95130.0;;;12.3;61.5
50166;BME280;36071;48.140;11.516;2023-02-23T13:38:31;95130.0;;;12.4;61.1
50166;BME280;36071;48.140;11.516;2023-02-23T13:43:31;95120.0;;;12.4;59.7
50166;BME280;36071;48.140;11.516;2023-02-23T13:48:31;95120.0;;;12.5;59.2
50166;BME280;36071;48.140;11.516;2023-02-23T13:53:36;95120.0;;;12.5;58.7
50166;BME280;36071;48.140;11.516;2023-02-23T13:58:29;95120.0;;;12.4;59.1
50166;BME280;36071;48.140;11.516;2023-02-23T14:03:29;95120.0;;;12.6;58.7
50166;BME280;36071;48.140;11.516;2023-02-23T14:08:30;95110.0;;;12.7;57.7
50166;BME280;36071;48.140;11.516;2023-02-23T14:13:29;95120.0;;;12.6;57.5
50166;BME280;36071;48.140;11.516;2023-02-23T14:18:30;95110.0;;;12.7;57.4
50166;BME280;36071;48.140;11.516;2023-02-23T14:23:32;95110.0;;;12.7;57.7
50166;BME280;36071;48.140;11.516;2023-02-23T14:28:32;95110.0;;;12.8;59.1
50166;BME280;36071;48.140;11.516;2023-02-23T14:33:49;95110.0;;;12.7;57.7
50166;BME280;36071;48.140;11.516;2023-02-23T14:38:30;95100.0;;;12.5;58.0
50166;BME280;36071;48.140;11.516;2023-02-23T14:43:32;95100.0;;;12.6;57.6
50166;BME280;36071;48.140;11.516;2023-02-23T14:48:29;95110.0;;;12.6;57.2
50166;BME280;36071;48.140;11.516;2023-02-23T14:53:29;95100.0;;;12.4;58.4
50166;BME280;36071;48.140;11.516;2023-02-23T14:58:29;95110.0;;;12.3;58.8
50166;BME280;36071;48.140;11.516;2023-02-23T15:03:29;95110.0;;;12.3;59.2
50166;BME280;36071;48.140;11.516;2023-02-23T15:08:29;95110.0;;;12.4;58.9
50166;BME280;36071;48.140;11.516;2023-02-23T15:13:30;95110.0;;;12.3;58.8
50166;BME280;36071;48.140;11.516;2023-02-23T15:18:30;95110.0;;;12.2;59.1
50166;BME280;36071;48.140;11.516;2023-02-23T15:23:32;95110.0;;;12.3;58.7
50166;BME280;36071;48.140;11.516;2023-02-23T15:28:29;95100.0;;;12.3;58.9
50166;BME280;36071;48.140;11.516;2023-02-23T15:33:29;95100.0;;;12.1;59.1
50166;BME280;36071;48.140;11.516;2023-02-23T15:38:30;95100.0;;;12.2;59.4
50166;BME280;36071;48.140;11.516;2023-02-23T15:43:29;95100.0;;;12.1;62.2
50166;BME280;36071;48.140;11.516;2023-02-23T15:48:34;95090.0;;;12.0;63.2
50166;BME280;36071;48.140;11.516;2023-02-23T15:53:31;95100.0;;;11.9;63.0
50166;BME280;36071;48.140;11.516;2023-02-23T15:58:30;95100.0;;;11.9;64.0
50166;BME280;36071;48.140;11.516;2023-02-23T16:03:30;95100.0;;;11.9;63.7
50166;BME280;36071;48.140;11.516;2023-02-23T16:08:29;95100.0;;;11.9;63.5
50166;BME280;36071;48.140;11.516;2023-02-23T16:13:29;95100.0;;;11.9;63.2
50166;BME280;36071;48.140;11.516;2023-02-23T16:18:33;95100.0;;;11.9;62.8
50166;BME280;36071;48.140;11.516;2023-02-23T16:23:30;95100.0;;;11.9;62.7
50166;BME280;36071;48.140;11.516;2023-02-23T16:28:30;95100.0;;;11.9;62.4
50166;BME280;36071;48.140;11.516;2023-02-23T16:33:29;95090.0;;;11.9;62.9
50166;BME280;36071;48.140;11.516;2023-02-23T16:38:32;95090.0;;;11.8;63.6
50166;BME280;36071;48.140;11.516;2023-02-23T16:43:29;95100.0;;;11.8;63.7
50166;BME280;36071;48.140;11.516;2023-02-23T16:53:29;95100.0;;;11.8;64.0
50166;BME280;36071;48.140;11.516;2023-02-23T16:58:29;95100.0;;;11.7;64.6
50166;BME280;36071;48.140;11.516;2023-02-23T17:03:29;95110.0;;;11.7;64.7
50166;BME280;36071;48.140;11.516;2023-02-23T17:08:29;95110.0;;;11.7;64.6
50166;BME280;36071;48.140;11.516;2023-02-23T17:13:29;95110.0;;;11.7;64.7
50166;BME280;36071;48.140;11.516;2023-02-23T17:18:30;95110.0;;;11.6;64.9
50166;BME280;36071;48.140;11.516;2023-02-23T17:23:30;95110.0;;;11.5;65.1
50166;BME280;36071;48.140;11.516;2023-02-23T17:33:29;95120.0;;;11.4;65.5
50166;BME280;36071;48.140;11.516;2023-02-23T17:38:29;95120.0;;;11.3;66.3
50166;BME280;36071;48.140;11.516;2023-02-23T17:43:29;95110.0;;;11.3;66.2
50166;BME280;36071;48.140;11.516;2023-02-23T17:48:29;95050.0;;;10.8;66.6
50166;BME280;36071;48.140;11.516;2023-02-23T17:53:29;95120.0;;;11.2;66.7
50166;BME280;36071;48.140;11.516;2023-02-23T17:58:29;95130.0;;;11.1;67.4
50166;BME280;36071;48.140;11.516;2023-02-23T18:03:30;95130.0;;;11.0;67.9
50166;BME280;36071;48.140;11.516;2023-02-23T18:08:29;95130.0;;;11.0;67.6
50166;BME280;36071;48.140;11.516;2023-02-23T18:13:29;95130.0;;;10.9;68.1
50166;BME280;36071;48.140;11.516;2023-02-23T18:18:29;95130.0;;;10.9;68.0
50166;BME280;36071;48.140;11.516;2023-02-23T18:23:29;95060.0;;;10.4;68.3
50166;BME280;36071;48.140;11.516;2023-02-23T18:28:29;95120.0;;;10.7;68.5
50166;BME280;36071;48.140;11.516;2023-02-23T18:33:29;95130.0;;;10.6;69.6
50166;BME280;36071;48.140;11.516;2023-02-23T18:38:34;95120.0;;;10.5;69.7
50166;BME280;36071;48.140;11.516;2023-02-23T18:43:29;95120.0;;;10.4;69.6
50166;BME280;36071;48.140;11.516;2023-02-23T18:48:29;95120.0;;;10.4;69.7
50166;BME280;36071;48.140;11.516;2023-02-23T18:53:29;95120.0;;;10.3;69.6
50166;BME280;36071;48.140;11.516;2023-02-23T18:58:29;95120.0;;;10.3;69.3
50166;BME280;36071;48.140;11.516;2023-02-23T19:03:29;95120.0;;;10.3;69.5
50166;BME280;36071;48.140;11.516;2023-02-23T19:08:29;95120.0;;;10.2;69.8
50166;BME280;36071;48.140;11.516;2023-02-23T19:13:29;95120.0;;;10.1;69.9
50166;BME280;36071;48.140;11.516;2023-02-23T19:18:29;95120.0;;;10.0;70.3
50166;BME280;36071;48.140;11.516;2023-02-23T19:23:29;95120.0;;;10.0;70.5
50166;BME280;36071;48.140;11.516;2023-02-23T19:28:29;95110.0;;;9.9;70.7
50166;BME280;36071;48.140;11.516;2023-02-23T19:33:29;95120.0;;;9.8;70.9
50166;BME280;36071;48.140;11.516;2023-02-23T19:38:29;95130.0;;;9.6;73.4
50166;BME280;36071;48.140;11.516;2023-02-23T19:43:29;95130.0;;;9.5;73.5
50166;BME280;36071;48.140;11.516;2023-02-23T19:48:29;95130.0;;;9.6;72.6
50166;BME280;36071;48.140;11.516;2023-02-23T19:53:29;95130.0;;;9.4;72.9
50166;BME280;36071;48.140;11.516;2023-02-23T19:58:29;95130.0;;;9.4;72.8
50166;BME280;36071;48.140;11.516;2023-02-23T20:03:29;95140.0;;;9.3;73.1
50166;BME280;36071;48.140;11.516;2023-02-23T20:08:29;95130.0;;;9.3;72.9
50166;BME280;36071;48.140;11.516;2023-02-23T20:13:29;95120.0;;;9.2;73.5
50166;BME280;36071;48.140;11.516;2023-02-23T20:18:29;95130.0;;;9.2;72.8
50166;BME280;36071;48.140;11.516;2023-02-23T20:23:29;95130.0;;;9.1;72.5
50166;BME280;36071;48.140;11.516;2023-02-23T20:28:29;95130.0;;;9.1;72.9
50166;BME280;36071;48.140;11.516;2023-02-23T20:33:29;95130.0;;;9.0;72.5
50166;BME280;36071;48.140;11.516;2023-02-23T20:38:29;95120.0;;;9.0;72.6
50166;BME280;36071;48.140;11.516;2023-02-23T20:43:29;95120.0;;;8.8;74.2
50166;BME280;36071;48.140;11.516;2023-02-23T20:48:29;95110.0;;;8.7;74.5
50166;BME280;36071;48.140;11.516;2023-02-23T20:53:29;95120.0;;;8.8;74.5
50166;BME280;36071;48.140;11.516;2023-02-23T20:58:29;95120.0;;;8.9;74.5
50166;BME280;36071;48.140;11.516;2023-02-23T21:03:29;95110.0;;;8.8;75.4
50166;BME280;36071;48.140;11.516;2023-02-23T21:08:29;95110.0;;;8.9;75.3
50166;BME280;36071;48.140;11.516;2023-02-23T21:13:29;95110.0;;;8.9;74.7
50166;BME280;36071;48.140;11.516;2023-02-23T21:18:29;95110.0;;;8.9;73.9
50166;BME280;36071;48.140;11.516;2023-02-23T21:23:29;95100.0;;;8.8;73.1
50166;BME280;36071;48.140;11.516;2023-02-23T21:28:29;95100.0;;;8.7;74.0
50166;BME280;36071;48.140;11.516;2023-02-23T21:33:29;95100.0;;;8.7;74.4
50166;BME280;36071;48.140;11.516;2023-02-23T21:38:29;95100.0;;;8.7;73.7
50166;BME280;36071;48.140;11.516;2023-02-23T21:43:29;95100.0;;;8.6;73.6
50166;BME280;36071;48.140;11.516;2023-02-23T21:48:29;95080.0;;;8.6;73.4
50166;BME280;36071;48.140;11.516;2023-02-23T21:53:29;95020.0;;;8.1;73.7
50166;BME280;36071;48.140;11.516;2023-02-23T21:58:29;95090.0;;;8.5;74.5
50166;BME280;36071;48.140;11.516;2023-02-23T22:03:29;95080.0;;;8.5;74.5
50166;BME280;36071;48.140;11.516;2023-02-23T22:08:29;95080.0;;;8.5;74.3
50166;BME280;36071;48.140;11.516;2023-02-23T22:13:29;95080.0;;;8.6;74.3
50166;BME280;36071;48.140;11.516;2023-02-23T22:18:29;95080.0;;;8.6;73.9
50166;BME280;36071;48.140;11.516;2023-02-23T22:23:29;95080.0;;;8.4;74.9
50166;BME280;36071;48.140;11.516;2023-02-23T22:28:29;95080.0;;;8.4;74.3
50166;BME280;36071;48.140;11.516;2023-02-23T22:33:29;95080.0;;;8.4;74.5
50166;BME280;36071;48.140;11.516;2023-02-23T22:38:29;95070.0;;;8.3;75.2
50166;BME280;36071;48.140;11.516;2023-02-23T22:43:29;95070.0;;;8.3;74.7
50166;BME280;36071;48.140;11.516;2023-02-23T22:48:29;95070.0;;;8.2;75.2
50166;BME280;36071;48.140;11.516;2023-02-23T22:53:29;95060.0;;;8.2;75.1
50166;BME280;36071;48.140;11.516;2023-02-23T22:58:29;95070.0;;;8.1;75.8
50166;BME280;36071;48.140;11.516;2023-02-23T23:03:30;95060.0;;;8.1;75.7
50166;BME280;36071;48.140;11.516;2023-02-23T23:08:29;95060.0;;;8.1;75.5
50166;BME280;36071;48.140;11.516;2023-02-23T23:13:29;95050.0;;;8.1;75.6
50166;BME280;36071;48.140;11.516;2023-02-23T23:18:29;95040.0;;;8.0;76.1
50166;BME280;36071;48.140;11.516;2023-02-23T23:23:29;95030.0;;;8.0;75.0
50166;BME280;36071;48.140;11.516;2023-02-23T23:28:29;95030.0;;;8.0;75.4
50166;BME280;36071;48.140;11.516;2023-02-23T23:33:29;95040.0;;;7.9;74.8
50166;BME280;36071;48.140;11.516;2023-02-23T23:38:29;95040.0;;;7.8;75.2
50166;BME280;36071;48.140;11.516;2023-02-23T23:43:29;95030.0;;;7.8;75.7
50166;BME280;36071;48.140;11.516;2023-02-23T23:48:29;95030.0;;;7.6;76.4
50166;BME280;36071;48.140;11.516;2023-02-23T23:53:29;95030.0;;;7.6;76.6
50166;BME280;36071;48.140;11.516;2023-02-23T23:58:29;95020.0;;;7.6;75.8
